Angola, Kansas
Current Conditions -  °F | °C
As of 4:52 AM on Thursday 27 Nov 2014 (Local Time) from KCFV Reporting Station
Clear Clear  
Wind Chill: 17°   Ceiling: Unl
Heat Index: 23°   Visibility: 10mi
Dew Point: 19°   Wind: 5mph
Humidity: 85%   Direction: 330°NNW
Pressure: 30.5"   Gusts: NA
Location:  37.067°N, 95.5817°W
Report Text: KCFV 271052Z AUTO 33004KT 10SM CLR M05/M07 A3050 RMK AO2 SLP334 T10501072
Loading
Personal Weather Stations






























Interactive Weather Map New forecast layout! Learn more

10-Day Weather Forecast

Advertisements
Track Severe Weather on mobile